Wind From: 11-12-2017 06:00 Until: 12-12-2017 06:00 warning for: Wind Level: Orange info button

Power and phone distribution networks may be disrupted for relatively long periods., Roofs and chimneys can be damaged. , Tree branches may break. , Vehicles can be deported. , Traffic may be disrupted, particularly on secondary roads in forest areas. Limit your trips. , Limit your speed in highway driving, especially if you drive a vehicle or hitch sensitive to wind. , Do not go for walks in forests or along the coast., In town, be vigilant against possible falling objects., Do not work on roofs and do not touch any electrical line fallen on the ground., Store or secure sensitive objects to wind or likely to be damaged., Always install power generators outside buildings. 


Meteo18 Weather Cam more information Meteo18 Weather Cam


Thunder radar more information blitzortung!


Rain radar more information rain snow radar


Visit our other weather sites:

Template documentation
and downloads

And another site



Weather Underground History page Text

Daily Summary for November 6, 2017 Units:  Both    English   Metric
« Previous Day
Next Day »
Daily Weekly Monthly Yearly Custom
  High: Low: Average:
Temperature: 48.7 °F /  9.3 °C 37.6 °F /  3.1 °C 42.4 °F /  5.8 °C
Dew Point: 41.4 °F /  5.2 °C 34 °F /  1.1 °C 37 °F /  2.8 °C
Humidity: 94 % 63 % 82 %
Wind Speed: 16 mph /  25.7 km/h - 5 mph /  8 km/h
Wind Gust: 25 mph /  40.2 km/h - -
Wind:- - SSW
Pressure: 30.3 in /  1026.0 hPa 30.2 in /  1021.2 hPa -
Precipitation: 0.01 in /  0.3 mm    
Historical Graphs
 
 
Tabular Data for November 6, 2017
Time Temperature Dew Point Pressure Wind Wind Speed Wind Gust Humidity Rainfall Rate (Hourly)
00:02 39.4 °F /  4.1 °C 36.7 °F /  2.6 °C 30.2 in /  1021.2 hPa WNW 1 mph /  1.6 km/h 6 mph /  9.7 km/h 90 % 0 in /  0.0 mm
00:07 39.4 °F /  4.1 °C 37 °F /  2.8 °C 30.2 in /  1021.2 hPa NW 2 mph /  3.2 km/h 6 mph /  9.7 km/h 91 % 0 in /  0.0 mm
00:12 39.2 °F /  4.0 °C 36.9 °F /  2.7 °C 30.2 in /  1021.6 hPa Calm   6 mph /  9.7 km/h 91 % 0 in /  0.0 mm
00:17 39 °F /  3.9 °C 36.7 °F /  2.6 °C 30.2 in /  1021.6 hPa North 1 mph /  1.6 km/h 6 mph /  9.7 km/h 91 % 0 in /  0.0 mm
00:22 39 °F /  3.9 °C 36.7 °F /  2.6 °C 30.2 in /  1021.6 hPa Calm   5 mph /  8.0 km/h 91 % 0 in /  0.0 mm
00:32 39 °F /  3.9 °C 36.9 °F /  2.7 °C 30.2 in /  1021.6 hPa WNW 3 mph /  4.8 km/h 7 mph /  11.3 km/h 92 % 0 in /  0.0 mm
00:37 39 °F /  3.9 °C 36.9 °F /  2.7 °C 30.2 in /  1021.6 hPa West 3 mph /  4.8 km/h 7 mph /  11.3 km/h 92 % 0 in /  0.0 mm
00:42 39 °F /  3.9 °C 36.9 °F /  2.7 °C 30.2 in /  1021.6 hPa NW 3 mph /  4.8 km/h 7 mph /  11.3 km/h 92 % 0 in /  0.0 mm
00:47 39 °F /  3.9 °C 36.9 °F /  2.7 °C 30.2 in /  1021.6 hPa WNW 6 mph /  9.7 km/h 9 mph /  14.5 km/h 92 % 0 in /  0.0 mm
00:52 39 °F /  3.9 °C 36.9 °F /  2.7 °C 30.2 in /  1021.6 hPa WNW 4 mph /  6.4 km/h 9 mph /  14.5 km/h 92 % 0 in /  0.0 mm
01:02 38.8 °F /  3.8 °C 36.7 °F /  2.6 °C 30.2 in /  1021.6 hPa WNW 1 mph /  1.6 km/h 9 mph /  14.5 km/h 92 % 0 in /  0.0 mm
01:07 38.8 °F /  3.8 °C 36.7 °F /  2.6 °C 30.2 in /  1021.6 hPa NW 1 mph /  1.6 km/h 9 mph /  14.5 km/h 92 % 0 in /  0.0 mm
01:12 38.7 °F /  3.7 °C 36.5 °F /  2.5 °C 30.2 in /  1021.6 hPa NW 1 mph /  1.6 km/h 7 mph /  11.3 km/h 92 % 0 in /  0.0 mm
01:17 38.7 °F /  3.7 °C 36.5 °F /  2.5 °C 30.2 in /  1021.6 hPa NNW 2 mph /  3.2 km/h 6 mph /  9.7 km/h 92 % 0 in /  0.0 mm
01:22 38.5 °F /  3.6 °C 36.3 °F /  2.4 °C 30.2 in /  1021.6 hPa WNW 2 mph /  3.2 km/h 5 mph /  8.0 km/h 92 % 0 in /  0.0 mm
01:32 38.5 °F /  3.6 °C 36.7 °F /  2.6 °C 30.2 in /  1021.6 hPa Calm   6 mph /  9.7 km/h 93 % 0 in /  0.0 mm
01:37 38.7 °F /  3.7 °C 36.9 °F /  2.7 °C 30.2 in /  1021.6 hPa WSW 3 mph /  4.8 km/h 6 mph /  9.7 km/h 93 % 0 in /  0.0 mm
01:42 38.5 °F /  3.6 °C 36.7 °F /  2.6 °C 30.2 in /  1021.6 hPa North 1 mph /  1.6 km/h 6 mph /  9.7 km/h 93 % 0 in /  0.0 mm
01:47 38.5 °F /  3.6 °C 36.7 °F /  2.6 °C 30.2 in /  1021.6 hPa NW 3 mph /  4.8 km/h 6 mph /  9.7 km/h 93 % 0 in /  0.0 mm
01:52 38.7 °F /  3.7 °C 36.9 °F /  2.7 °C 30.2 in /  1021.6 hPa North 1 mph /  1.6 km/h 5 mph /  8.0 km/h 93 % 0 in /  0.0 mm
01:57 38.5 °F /  3.6 °C 36.7 °F /  2.6 °C 30.2 in /  1021.6 hPa NNW 2 mph /  3.2 km/h 6 mph /  9.7 km/h 93 % 0 in /  0.0 mm
02:02 38.5 °F /  3.6 °C 36.7 °F /  2.6 °C 30.2 in /  1021.9 hPa NW 1 mph /  1.6 km/h 6 mph /  9.7 km/h 93 % 0 in /  0.0 mm
02:07 38.5 °F /  3.6 °C 36.7 °F /  2.6 °C 30.2 in /  1021.9 hPa NW 1 mph /  1.6 km/h 5 mph /  8.0 km/h 93 % 0 in /  0.0 mm
02:12 38.5 °F /  3.6 °C 36.7 °F /  2.6 °C 30.2 in /  1021.9 hPa NW 2 mph /  3.2 km/h 5 mph /  8.0 km/h 93 % 0 in /  0.0 mm
02:17 38.3 °F /  3.5 °C 36.5 °F /  2.5 °C 30.2 in /  1021.9 hPa NNW 1 mph /  1.6 km/h 5 mph /  8.0 km/h 93 % 0 in /  0.0 mm
02:22 38.1 °F /  3.4 °C 36.3 °F /  2.4 °C 30.2 in /  1022.2 hPa North 2 mph /  3.2 km/h 5 mph /  8.0 km/h 93 % 0 in /  0.0 mm
02:32 38.5 °F /  3.6 °C 36.9 °F /  2.7 °C 30.2 in /  1021.9 hPa NNW 2 mph /  3.2 km/h 7 mph /  11.3 km/h 94 % 0 in /  0.0 mm
02:37 38.3 °F /  3.5 °C 36.7 °F /  2.6 °C 30.2 in /  1021.9 hPa NW 3 mph /  4.8 km/h 7 mph /  11.3 km/h 94 % 0 in /  0.0 mm
02:42 38.3 °F /  3.5 °C 36.7 °F /  2.6 °C 30.2 in /  1021.9 hPa NW 1 mph /  1.6 km/h 7 mph /  11.3 km/h 94 % 0 in /  0.0 mm
02:47 38.3 °F /  3.5 °C 36.7 °F /  2.6 °C 30.2 in /  1021.9 hPa WNW 3 mph /  4.8 km/h 6 mph /  9.7 km/h 94 % 0 in /  0.0 mm
02:52 38.3 °F /  3.5 °C 36.7 °F /  2.6 °C 30.2 in /  1021.9 hPa NW 1 mph /  1.6 km/h 6 mph /  9.7 km/h 94 % 0 in /  0.0 mm
02:57 38.5 °F /  3.6 °C 36.9 °F /  2.7 °C 30.2 in /  1022.2 hPa Calm   6 mph /  9.7 km/h 94 % 0 in /  0.0 mm
03:02 38.5 °F /  3.6 °C 36.9 °F /  2.7 °C 30.2 in /  1022.2 hPa WNW 1 mph /  1.6 km/h 7 mph /  11.3 km/h 94 % 0 in /  0.0 mm
03:07 38.5 °F /  3.6 °C 36.9 °F /  2.7 °C 30.2 in /  1022.2 hPa WNW 1 mph /  1.6 km/h 7 mph /  11.3 km/h 94 % 0 in /  0.0 mm
03:12 38.7 °F /  3.7 °C 37 °F /  2.8 °C 30.2 in /  1021.9 hPa NW 1 mph /  1.6 km/h 5 mph /  8.0 km/h 94 % 0 in /  0.0 mm
03:17 38.7 °F /  3.7 °C 37 °F /  2.8 °C 30.2 in /  1022.2 hPa WNW 3 mph /  4.8 km/h 6 mph /  9.7 km/h 94 % 0 in /  0.0 mm
03:22 38.7 °F /  3.7 °C 37 °F /  2.8 °C 30.2 in /  1022.2 hPa NNW 5 mph /  8.0 km/h 6 mph /  9.7 km/h 94 % 0 in /  0.0 mm
03:27 38.7 °F /  3.7 °C 37 °F /  2.8 °C 30.2 in /  1021.9 hPa WNW 2 mph /  3.2 km/h 6 mph /  9.7 km/h 94 % 0 in /  0.0 mm
03:32 38.7 °F /  3.7 °C 37 °F /  2.8 °C 30.2 in /  1021.9 hPa Calm   6 mph /  9.7 km/h 94 % 0 in /  0.0 mm
03:37 38.5 °F /  3.6 °C 36.9 °F /  2.7 °C 30.2 in /  1021.9 hPa NNE 1 mph /  1.6 km/h 6 mph /  9.7 km/h 94 % 0 in /  0.0 mm
03:42 38.5 °F /  3.6 °C 36.9 °F /  2.7 °C 30.2 in /  1022.2 hPa West 2 mph /  3.2 km/h 5 mph /  8.0 km/h 94 % 0 in /  0.0 mm
03:47 37.6 °F /  3.1 °C 36 °F /  2.2 °C 30.2 in /  1022.2 hPa WNW 3 mph /  4.8 km/h 5 mph /  8.0 km/h 94 % 0 in /  0.0 mm
08:27 38.1 °F /  3.4 °C 36.5 °F /  2.5 °C 30.3 in /  1024.3 hPa WNW 1 mph /  1.6 km/h 5 mph /  8.0 km/h 94 % 0 in /  0.0 mm
08:32 38.3 °F /  3.5 °C 36.7 °F /  2.6 °C 30.3 in /  1024.3 hPa NW 1 mph /  1.6 km/h 5 mph /  8.0 km/h 94 % 0 in /  0.0 mm
08:42 38.5 °F /  3.6 °C 36.9 °F /  2.7 °C 30.3 in /  1024.3 hPa North 4 mph /  6.4 km/h 5 mph /  8.0 km/h 94 % 0 in /  0.0 mm
08:47 38.7 °F /  3.7 °C 37 °F /  2.8 °C 30.3 in /  1024.3 hPa North 2 mph /  3.2 km/h 6 mph /  9.7 km/h 94 % 0 in /  0.0 mm
08:52 38.8 °F /  3.8 °C 37 °F /  2.8 °C 30.3 in /  1024.3 hPa NW 1 mph /  1.6 km/h 7 mph /  11.3 km/h 93 % 0 in /  0.0 mm
09:02 39 °F /  3.9 °C 37.2 °F /  2.9 °C 30.3 in /  1024.6 hPa WNW 4 mph /  6.4 km/h 8 mph /  12.9 km/h 93 % 0 in /  0.0 mm
09:12 39.6 °F /  4.2 °C 37.8 °F /  3.2 °C 30.3 in /  1024.6 hPa North 2 mph /  3.2 km/h 8 mph /  12.9 km/h 93 % 0.01 in /  0.3 mm
09:17 39.9 °F /  4.4 °C 38.1 °F /  3.4 °C 30.3 in /  1024.6 hPa North 4 mph /  6.4 km/h 8 mph /  12.9 km/h 93 % 0.01 in /  0.3 mm
09:22 40.1 °F /  4.5 °C 38.3 °F /  3.5 °C 30.3 in /  1024.6 hPa NW 7 mph /  11.3 km/h 11 mph /  17.7 km/h 93 % 0.01 in /  0.3 mm
09:27 40.3 °F /  4.6 °C 38.5 °F /  3.6 °C 30.3 in /  1024.6 hPa NW 8 mph /  12.9 km/h 11 mph /  17.7 km/h 93 % 0.01 in /  0.3 mm
09:32 40.6 °F /  4.8 °C 38.8 °F /  3.8 °C 30.3 in /  1024.6 hPa NNW 5 mph /  8.0 km/h 11 mph /  17.7 km/h 93 % 0.01 in /  0.3 mm
09:42 41.4 °F /  5.2 °C 39.2 °F /  4.0 °C 30.3 in /  1024.9 hPa NNW 3 mph /  4.8 km/h 10 mph /  16.1 km/h 92 % 0.01 in /  0.3 mm
09:47 41.5 °F /  5.3 °C 39.2 °F /  4.0 °C 30.3 in /  1024.9 hPa NW 3 mph /  4.8 km/h 12 mph /  19.3 km/h 91 % 0.01 in /  0.3 mm
09:52 41.7 °F /  5.4 °C 39.2 °F /  4.0 °C 30.3 in /  1024.9 hPa North 13 mph /  20.9 km/h 13 mph /  20.9 km/h 91 % 0.01 in /  0.3 mm
09:57 41.9 °F /  5.5 °C 39.2 °F /  4.0 °C 30.3 in /  1024.9 hPa NNW 6 mph /  9.7 km/h 13 mph /  20.9 km/h 90 % 0.01 in /  0.3 mm
10:02 41.9 °F /  5.5 °C 39.2 °F /  4.0 °C 30.3 in /  1024.9 hPa NNW 11 mph /  17.7 km/h 15 mph /  24.1 km/h 90 % 0.01 in /  0.3 mm
10:12 41.7 °F /  5.4 °C 39 °F /  3.9 °C 30.3 in /  1024.9 hPa NNE 6 mph /  9.7 km/h 15 mph /  24.1 km/h 90 % 0 in /  0.0 mm
10:17 41.7 °F /  5.4 °C 39 °F /  3.9 °C 30.3 in /  1024.9 hPa NW 5 mph /  8.0 km/h 15 mph /  24.1 km/h 90 % 0 in /  0.0 mm
10:22 42.1 °F /  5.6 °C 39.4 °F /  4.1 °C 30.3 in /  1024.6 hPa NNW 10 mph /  16.1 km/h 15 mph /  24.1 km/h 90 % 0 in /  0.0 mm
10:27 41.9 °F /  5.5 °C 38.8 °F /  3.8 °C 30.3 in /  1024.6 hPa NNE 9 mph /  14.5 km/h 15 mph /  24.1 km/h 89 % 0 in /  0.0 mm
10:32 42.1 °F /  5.6 °C 39.4 °F /  4.1 °C 30.3 in /  1024.9 hPa NE 10 mph /  16.1 km/h 19 mph /  30.6 km/h 90 % 0 in /  0.0 mm
10:37 42.3 °F /  5.7 °C 39.2 °F /  4.0 °C 30.3 in /  1024.6 hPa NNE 5 mph /  8.0 km/h 19 mph /  30.6 km/h 89 % 0 in /  0.0 mm
10:42 42.3 °F /  5.7 °C 39 °F /  3.9 °C 30.3 in /  1024.6 hPa North 11 mph /  17.7 km/h 18 mph /  29.0 km/h 88 % 0 in /  0.0 mm
10:47 42.1 °F /  5.6 °C 39 °F /  3.9 °C 30.3 in /  1024.9 hPa NNW 6 mph /  9.7 km/h 18 mph /  29.0 km/h 89 % 0 in /  0.0 mm
10:52 42.3 °F /  5.7 °C 39.2 °F /  4.0 °C 30.3 in /  1024.9 hPa NNW 5 mph /  8.0 km/h 19 mph /  30.6 km/h 89 % 0 in /  0.0 mm
10:57 42.3 °F /  5.7 °C 39.2 °F /  4.0 °C 30.3 in /  1024.9 hPa WNW 8 mph /  12.9 km/h 19 mph /  30.6 km/h 89 % 0 in /  0.0 mm
11:02 42.6 °F /  5.9 °C 39.6 °F /  4.2 °C 30.3 in /  1024.9 hPa NNW 4 mph /  6.4 km/h 19 mph /  30.6 km/h 89 % 0 in /  0.0 mm
11:07 43 °F /  6.1 °C 39.9 °F /  4.4 °C 30.3 in /  1024.9 hPa NNW 7 mph /  11.3 km/h 19 mph /  30.6 km/h 89 % 0 in /  0.0 mm
11:12 43.3 °F /  6.3 °C 40.1 °F /  4.5 °C 30.3 in /  1024.9 hPa NNE 11 mph /  17.7 km/h 16 mph /  25.7 km/h 88 % 0 in /  0.0 mm
11:17 43.5 °F /  6.4 °C 39.9 °F /  4.4 °C 30.3 in /  1024.9 hPa North 10 mph /  16.1 km/h 16 mph /  25.7 km/h 87 % 0 in /  0.0 mm
11:22 43.7 °F /  6.5 °C 39.7 °F /  4.3 °C 30.3 in /  1024.9 hPa NE 14 mph /  22.5 km/h 16 mph /  25.7 km/h 86 % 0 in /  0.0 mm
11:27 43.9 °F /  6.6 °C 40.3 °F /  4.6 °C 30.3 in /  1024.9 hPa NE 14 mph /  22.5 km/h 17 mph /  27.4 km/h 87 % 0 in /  0.0 mm
11:32 44.4 °F /  6.9 °C 40.5 °F /  4.7 °C 30.3 in /  1024.9 hPa NNE 16 mph /  25.7 km/h 20 mph /  32.2 km/h 86 % 0 in /  0.0 mm
11:37 44.8 °F /  7.1 °C 40.5 °F /  4.7 °C 30.3 in /  1024.9 hPa NE 8 mph /  12.9 km/h 20 mph /  32.2 km/h 85 % 0 in /  0.0 mm
11:42 45 °F /  7.2 °C 40.6 °F /  4.8 °C 30.3 in /  1024.9 hPa NNE 9 mph /  14.5 km/h 20 mph /  32.2 km/h 85 % 0 in /  0.0 mm
11:47 45 °F /  7.2 °C 40.5 °F /  4.7 °C 30.3 in /  1024.9 hPa NNW 13 mph /  20.9 km/h 19 mph /  30.6 km/h 84 % 0 in /  0.0 mm
11:52 45 °F /  7.2 °C 40.6 °F /  4.8 °C 30.3 in /  1024.9 hPa ENE 6 mph /  9.7 km/h 19 mph /  30.6 km/h 85 % 0 in /  0.0 mm
11:57 45.1 °F /  7.3 °C 40.6 °F /  4.8 °C 30.3 in /  1024.9 hPa NNE 14 mph /  22.5 km/h 19 mph /  30.6 km/h 84 % 0 in /  0.0 mm
12:02 45.3 °F /  7.4 °C 40.8 °F /  4.9 °C 30.3 in /  1024.9 hPa North 9 mph /  14.5 km/h 18 mph /  29.0 km/h 84 % 0 in /  0.0 mm
12:07 45.1 °F /  7.3 °C 40.3 °F /  4.6 °C 30.3 in /  1024.9 hPa NE 5 mph /  8.0 km/h 16 mph /  25.7 km/h 83 % 0 in /  0.0 mm
12:12 45.7 °F /  7.6 °C 41.2 °F /  5.1 °C 30.3 in /  1024.6 hPa ENE 9 mph /  14.5 km/h 16 mph /  25.7 km/h 84 % 0 in /  0.0 mm
12:17 45.9 °F /  7.7 °C 40.3 °F /  4.6 °C 30.3 in /  1024.6 hPa North 8 mph /  12.9 km/h 20 mph /  32.2 km/h 81 % 0 in /  0.0 mm
12:22 46.2 °F /  7.9 °C 41.4 °F /  5.2 °C 30.3 in /  1024.6 hPa West 5 mph /  8.0 km/h 20 mph /  32.2 km/h 83 % 0 in /  0.0 mm
12:27 46.8 °F /  8.2 °C 41 °F /  5.0 °C 30.3 in /  1024.6 hPa NNW 8 mph /  12.9 km/h 20 mph /  32.2 km/h 80 % 0 in /  0.0 mm
12:32 46.8 °F /  8.2 °C 40.6 °F /  4.8 °C 30.3 in /  1024.6 hPa NE 4 mph /  6.4 km/h 15 mph /  24.1 km/h 79 % 0 in /  0.0 mm
12:42 46.6 °F /  8.1 °C 39.7 °F /  4.3 °C 30.3 in /  1024.6 hPa NE 8 mph /  12.9 km/h 20 mph /  32.2 km/h 77 % 0 in /  0.0 mm
12:47 46.8 °F /  8.2 °C 39.9 °F /  4.4 °C 30.3 in /  1024.3 hPa NNW 6 mph /  9.7 km/h 17 mph /  27.4 km/h 77 % 0 in /  0.0 mm
12:52 46.8 °F /  8.2 °C 39.6 °F /  4.2 °C 30.3 in /  1024.3 hPa ENE 10 mph /  16.1 km/h 18 mph /  29.0 km/h 76 % 0 in /  0.0 mm
12:57 46.9 °F /  8.3 °C 39.4 °F /  4.1 °C 30.3 in /  1024.3 hPa NNW 10 mph /  16.1 km/h 20 mph /  32.2 km/h 75 % 0 in /  0.0 mm
13:02 47.5 °F /  8.6 °C 39.6 °F /  4.2 °C 30.3 in /  1024.3 hPa North 11 mph /  17.7 km/h 20 mph /  32.2 km/h 74 % 0 in /  0.0 mm
13:07 47.3 °F /  8.5 °C 39.7 °F /  4.3 °C 30.3 in /  1024.3 hPa North 9 mph /  14.5 km/h 20 mph /  32.2 km/h 75 % 0 in /  0.0 mm
13:12 47.3 °F /  8.5 °C 39.7 °F /  4.3 °C 30.3 in /  1024.3 hPa North 6 mph /  9.7 km/h 18 mph /  29.0 km/h 75 % 0 in /  0.0 mm
13:17 47.1 °F /  8.4 °C 39.6 °F /  4.2 °C 30.3 in /  1024.3 hPa North 13 mph /  20.9 km/h 17 mph /  27.4 km/h 75 % 0 in /  0.0 mm
13:22 47.1 °F /  8.4 °C 39.6 °F /  4.2 °C 30.3 in /  1024.3 hPa NNE 8 mph /  12.9 km/h 19 mph /  30.6 km/h 75 % 0 in /  0.0 mm
13:27 47.3 °F /  8.5 °C 39.7 °F /  4.3 °C 30.3 in /  1024.3 hPa NE 4 mph /  6.4 km/h 19 mph /  30.6 km/h 75 % 0 in /  0.0 mm
13:32 47.7 °F /  8.7 °C 39.7 °F /  4.3 °C 30.3 in /  1024.3 hPa NE 10 mph /  16.1 km/h 19 mph /  30.6 km/h 74 % 0 in /  0.0 mm
13:37 47.8 °F /  8.8 °C 39.2 °F /  4.0 °C 30.3 in /  1024.3 hPa NNE 11 mph /  17.7 km/h 16 mph /  25.7 km/h 72 % 0 in /  0.0 mm
13:42 47.8 °F /  8.8 °C 37 °F /  2.8 °C 30.3 in /  1024.3 hPa North 8 mph /  12.9 km/h 21 mph /  33.8 km/h 66 % 0 in /  0.0 mm
13:47 47.8 °F /  8.8 °C 37 °F /  2.8 °C 30.3 in /  1024.3 hPa NE 14 mph /  22.5 km/h 25 mph /  40.2 km/h 66 % 0 in /  0.0 mm
13:52 47.7 °F /  8.7 °C 37.9 °F /  3.3 °C 30.3 in /  1024.3 hPa North 9 mph /  14.5 km/h 25 mph /  40.2 km/h 69 % 0 in /  0.0 mm
13:57 47.5 °F /  8.6 °C 38.5 °F /  3.6 °C 30.3 in /  1024.3 hPa ENE 8 mph /  12.9 km/h 25 mph /  40.2 km/h 71 % 0 in /  0.0 mm
14:02 47.5 °F /  8.6 °C 38.1 °F /  3.4 °C 30.3 in /  1024.3 hPa NNW 5 mph /  8.0 km/h 22 mph /  35.4 km/h 70 % 0 in /  0.0 mm
14:07 47.8 °F /  8.8 °C 38.1 °F /  3.4 °C 30.3 in /  1024.3 hPa NNW 5 mph /  8.0 km/h 16 mph /  25.7 km/h 69 % 0 in /  0.0 mm
14:12 48 °F /  8.9 °C 37.6 °F /  3.1 °C 30.3 in /  1024.3 hPa NNW 10 mph /  16.1 km/h 17 mph /  27.4 km/h 67 % 0 in /  0.0 mm
14:17 48.4 °F /  9.1 °C 38.3 °F /  3.5 °C 30.3 in /  1024.3 hPa North 6 mph /  9.7 km/h 19 mph /  30.6 km/h 68 % 0 in /  0.0 mm
14:22 48.2 °F /  9.0 °C 37.8 °F /  3.2 °C 30.3 in /  1024.3 hPa NE 9 mph /  14.5 km/h 19 mph /  30.6 km/h 67 % 0 in /  0.0 mm
14:32 48.4 °F /  9.1 °C 37.6 °F /  3.1 °C 30.3 in /  1024.3 hPa NW 10 mph /  16.1 km/h 17 mph /  27.4 km/h 66 % 0 in /  0.0 mm
14:37 47.7 °F /  8.7 °C 36.5 °F /  2.5 °C 30.3 in /  1024.3 hPa NNW 10 mph /  16.1 km/h 19 mph /  30.6 km/h 65 % 0 in /  0.0 mm
14:42 47.8 °F /  8.8 °C 36.3 °F /  2.4 °C 30.3 in /  1024.3 hPa NE 10 mph /  16.1 km/h 19 mph /  30.6 km/h 64 % 0 in /  0.0 mm
14:47 48 °F /  8.9 °C 36 °F /  2.2 °C 30.3 in /  1024.3 hPa ENE 6 mph /  9.7 km/h 19 mph /  30.6 km/h 63 % 0 in /  0.0 mm
14:57 48 °F /  8.9 °C 36.5 °F /  2.5 °C 30.3 in /  1024.3 hPa NNW 5 mph /  8.0 km/h 20 mph /  32.2 km/h 64 % 0 in /  0.0 mm
15:02 48.4 °F /  9.1 °C 37.2 °F /  2.9 °C 30.3 in /  1024.3 hPa NE 7 mph /  11.3 km/h 20 mph /  32.2 km/h 65 % 0 in /  0.0 mm
15:07 48.6 °F /  9.2 °C 37.8 °F /  3.2 °C 30.3 in /  1024.3 hPa NW 4 mph /  6.4 km/h 20 mph /  32.2 km/h 66 % 0 in /  0.0 mm
15:12 48.7 °F /  9.3 °C 37 °F /  2.8 °C 30.3 in /  1024.3 hPa NNE 16 mph /  25.7 km/h 17 mph /  27.4 km/h 64 % 0 in /  0.0 mm
15:22 48.6 °F /  9.2 °C 37.4 °F /  3.0 °C 30.3 in /  1024.3 hPa NW 3 mph /  4.8 km/h 17 mph /  27.4 km/h 65 % 0 in /  0.0 mm
15:27 48.7 °F /  9.3 °C 37.6 °F /  3.1 °C 30.3 in /  1024.3 hPa North 14 mph /  22.5 km/h 17 mph /  27.4 km/h 65 % 0 in /  0.0 mm
15:32 48.7 °F /  9.3 °C 37 °F /  2.8 °C 30.3 in /  1024.3 hPa North 6 mph /  9.7 km/h 16 mph /  25.7 km/h 64 % 0 in /  0.0 mm
15:42 48.6 °F /  9.2 °C 36.9 °F /  2.7 °C 30.3 in /  1024.3 hPa NNE 5 mph /  8.0 km/h 19 mph /  30.6 km/h 64 % 0 in /  0.0 mm
15:47 48.4 °F /  9.1 °C 37.2 °F /  2.9 °C 30.3 in /  1024.3 hPa NE 5 mph /  8.0 km/h 19 mph /  30.6 km/h 65 % 0 in /  0.0 mm
15:52 48.2 °F /  9.0 °C 37 °F /  2.8 °C 30.3 in /  1024.3 hPa NNE 7 mph /  11.3 km/h 19 mph /  30.6 km/h 65 % 0 in /  0.0 mm
15:57 47.8 °F /  8.8 °C 37 °F /  2.8 °C 30.3 in /  1024.3 hPa NNW 7 mph /  11.3 km/h 16 mph /  25.7 km/h 66 % 0 in /  0.0 mm
16:02 47.7 °F /  8.7 °C 37.2 °F /  2.9 °C 30.3 in /  1024.3 hPa NW 5 mph /  8.0 km/h 18 mph /  29.0 km/h 67 % 0 in /  0.0 mm
16:12 47.5 °F /  8.6 °C 37 °F /  2.8 °C 30.3 in /  1024.3 hPa NW 8 mph /  12.9 km/h 18 mph /  29.0 km/h 67 % 0 in /  0.0 mm
16:17 47.5 °F /  8.6 °C 37 °F /  2.8 °C 30.3 in /  1024.3 hPa NNE 8 mph /  12.9 km/h 18 mph /  29.0 km/h 67 % 0 in /  0.0 mm
16:22 47.5 °F /  8.6 °C 37.4 °F /  3.0 °C 30.3 in /  1024.3 hPa North 4 mph /  6.4 km/h 18 mph /  29.0 km/h 68 % 0 in /  0.0 mm
16:27 47.5 °F /  8.6 °C 37.4 °F /  3.0 °C 30.3 in /  1024.3 hPa North 8 mph /  12.9 km/h 15 mph /  24.1 km/h 68 % 0 in /  0.0 mm
16:32 47.1 °F /  8.4 °C 37 °F /  2.8 °C 30.3 in /  1024.3 hPa NNE 5 mph /  8.0 km/h 11 mph /  17.7 km/h 68 % 0 in /  0.0 mm
16:37 46.9 °F /  8.3 °C 37.2 °F /  2.9 °C 30.3 in /  1024.3 hPa NNE 8 mph /  12.9 km/h 15 mph /  24.1 km/h 69 % 0 in /  0.0 mm
16:42 46.8 °F /  8.2 °C 37.2 °F /  2.9 °C 30.3 in /  1024.3 hPa North 7 mph /  11.3 km/h 15 mph /  24.1 km/h 69 % 0 in /  0.0 mm
16:47 46.6 °F /  8.1 °C 37.4 °F /  3.0 °C 30.3 in /  1024.3 hPa ENE 7 mph /  11.3 km/h 15 mph /  24.1 km/h 70 % 0 in /  0.0 mm
16:52 46.6 °F /  8.1 °C 37.4 °F /  3.0 °C 30.3 in /  1024.3 hPa NE 4 mph /  6.4 km/h 12 mph /  19.3 km/h 70 % 0 in /  0.0 mm
16:57 46.6 °F /  8.1 °C 37.4 °F /  3.0 °C 30.3 in /  1024.3 hPa NNE 2 mph /  3.2 km/h 11 mph /  17.7 km/h 70 % 0 in /  0.0 mm
17:02 46.2 °F /  7.9 °C 37.4 °F /  3.0 °C 30.3 in /  1024.3 hPa East 7 mph /  11.3 km/h 10 mph /  16.1 km/h 71 % 0 in /  0.0 mm
17:07 46 °F /  7.8 °C 37.2 °F /  2.9 °C 30.3 in /  1024.3 hPa North 8 mph /  12.9 km/h 10 mph /  16.1 km/h 71 % 0 in /  0.0 mm
17:12 45.9 °F /  7.7 °C 37 °F /  2.8 °C 30.3 in /  1024.3 hPa NNW 3 mph /  4.8 km/h 11 mph /  17.7 km/h 71 % 0 in /  0.0 mm
17:17 45.3 °F /  7.4 °C 36.9 °F /  2.7 °C 30.3 in /  1024.6 hPa North 4 mph /  6.4 km/h 12 mph /  19.3 km/h 72 % 0 in /  0.0 mm
17:22 45.1 °F /  7.3 °C 36.3 °F /  2.4 °C 30.3 in /  1024.6 hPa NNE 5 mph /  8.0 km/h 14 mph /  22.5 km/h 71 % 0 in /  0.0 mm
17:32 45 °F /  7.2 °C 36.5 °F /  2.5 °C 30.3 in /  1024.6 hPa NNW 3 mph /  4.8 km/h 13 mph /  20.9 km/h 72 % 0 in /  0.0 mm
17:37 45 °F /  7.2 °C 36.5 °F /  2.5 °C 30.3 in /  1024.6 hPa NNW 6 mph /  9.7 km/h 13 mph /  20.9 km/h 72 % 0 in /  0.0 mm
17:42 45 °F /  7.2 °C 36.5 °F /  2.5 °C 30.3 in /  1024.6 hPa NNW 6 mph /  9.7 km/h 12 mph /  19.3 km/h 72 % 0 in /  0.0 mm
17:47 44.8 °F /  7.1 °C 36.3 °F /  2.4 °C 30.3 in /  1024.6 hPa NNW 2 mph /  3.2 km/h 12 mph /  19.3 km/h 72 % 0 in /  0.0 mm
17:52 44.4 °F /  6.9 °C 36 °F /  2.2 °C 30.3 in /  1024.6 hPa NNW 5 mph /  8.0 km/h 10 mph /  16.1 km/h 72 % 0 in /  0.0 mm
17:57 44.4 °F /  6.9 °C 36 °F /  2.2 °C 30.3 in /  1024.6 hPa NNW 4 mph /  6.4 km/h 11 mph /  17.7 km/h 72 % 0 in /  0.0 mm
18:07 44.1 °F /  6.7 °C 36 °F /  2.2 °C 30.3 in /  1024.9 hPa NNW 4 mph /  6.4 km/h 11 mph /  17.7 km/h 73 % 0 in /  0.0 mm
18:12 44.1 °F /  6.7 °C 36 °F /  2.2 °C 30.3 in /  1024.9 hPa NW 3 mph /  4.8 km/h 12 mph /  19.3 km/h 73 % 0 in /  0.0 mm
18:17 44.1 °F /  6.7 °C 36 °F /  2.2 °C 30.3 in /  1024.9 hPa NE 7 mph /  11.3 km/h 12 mph /  19.3 km/h 73 % 0 in /  0.0 mm
18:22 43.9 °F /  6.6 °C 35.8 °F /  2.1 °C 30.3 in /  1024.9 hPa NW 6 mph /  9.7 km/h 12 mph /  19.3 km/h 73 % 0 in /  0.0 mm
18:32 43.3 °F /  6.3 °C 35.6 °F /  2.0 °C 30.3 in /  1024.9 hPa NNW 3 mph /  4.8 km/h 11 mph /  17.7 km/h 74 % 0 in /  0.0 mm
18:42 43 °F /  6.1 °C 35.6 °F /  2.0 °C 30.3 in /  1024.9 hPa NNE 2 mph /  3.2 km/h 9 mph /  14.5 km/h 75 % 0 in /  0.0 mm
18:47 43 °F /  6.1 °C 35.2 °F /  1.8 °C 30.3 in /  1025.3 hPa NNW 5 mph /  8.0 km/h 9 mph /  14.5 km/h 74 % 0 in /  0.0 mm
18:52 42.8 °F /  6.0 °C 35.4 °F /  1.9 °C 30.3 in /  1025.3 hPa NNW 3 mph /  4.8 km/h 13 mph /  20.9 km/h 75 % 0 in /  0.0 mm
18:57 42.6 °F /  5.9 °C 35.2 °F /  1.8 °C 30.3 in /  1025.3 hPa NNW 6 mph /  9.7 km/h 13 mph /  20.9 km/h 75 % 0 in /  0.0 mm
19:02 42.6 °F /  5.9 °C 35.2 °F /  1.8 °C 30.3 in /  1025.3 hPa Calm   9 mph /  14.5 km/h 75 % 0 in /  0.0 mm
19:07 42.6 °F /  5.9 °C 35.2 °F /  1.8 °C 30.3 in /  1025.3 hPa North 5 mph /  8.0 km/h 9 mph /  14.5 km/h 75 % 0 in /  0.0 mm
19:12 42.4 °F /  5.8 °C 35.1 °F /  1.7 °C 30.3 in /  1025.6 hPa NE 2 mph /  3.2 km/h 9 mph /  14.5 km/h 75 % 0 in /  0.0 mm
19:17 42.3 °F /  5.7 °C 35.2 °F /  1.8 °C 30.3 in /  1025.3 hPa NE 2 mph /  3.2 km/h 9 mph /  14.5 km/h 76 % 0 in /  0.0 mm
19:22 42.3 °F /  5.7 °C 35.2 °F /  1.8 °C 30.3 in /  1025.6 hPa ENE 3 mph /  4.8 km/h 8 mph /  12.9 km/h 76 % 0 in /  0.0 mm
19:32 41.9 °F /  5.5 °C 35.2 °F /  1.8 °C 30.3 in /  1025.6 hPa NE 3 mph /  4.8 km/h 6 mph /  9.7 km/h 77 % 0 in /  0.0 mm
19:37 41.9 °F /  5.5 °C 35.2 °F /  1.8 °C 30.3 in /  1025.6 hPa North 2 mph /  3.2 km/h 6 mph /  9.7 km/h 77 % 0 in /  0.0 mm
19:42 41.9 °F /  5.5 °C 35.2 °F /  1.8 °C 30.3 in /  1025.6 hPa North 4 mph /  6.4 km/h 7 mph /  11.3 km/h 77 % 0 in /  0.0 mm
19:47 41.7 °F /  5.4 °C 35.4 °F /  1.9 °C 30.3 in /  1026.0 hPa NE 3 mph /  4.8 km/h 7 mph /  11.3 km/h 78 % 0 in /  0.0 mm
19:52 41.2 °F /  5.1 °C 35.2 °F /  1.8 °C 30.3 in /  1026.0 hPa ENE 3 mph /  4.8 km/h 7 mph /  11.3 km/h 79 % 0 in /  0.0 mm
20:02 40.6 °F /  4.8 °C 34.9 °F /  1.6 °C 30.3 in /  1025.6 hPa Calm   8 mph /  12.9 km/h 80 % 0 in /  0.0 mm
20:07 40.5 °F /  4.7 °C 34.7 °F /  1.5 °C 30.3 in /  1025.6 hPa NE 1 mph /  1.6 km/h 8 mph /  12.9 km/h 80 % 0 in /  0.0 mm
20:12 40.3 °F /  4.6 °C 34.9 °F /  1.6 °C 30.3 in /  1025.6 hPa NNE 2 mph /  3.2 km/h 7 mph /  11.3 km/h 81 % 0 in /  0.0 mm
20:17 40.1 °F /  4.5 °C 34.7 °F /  1.5 °C 30.3 in /  1025.6 hPa NNW 1 mph /  1.6 km/h 5 mph /  8.0 km/h 81 % 0 in /  0.0 mm
20:22 40.3 °F /  4.6 °C 34.9 °F /  1.6 °C 30.3 in /  1025.6 hPa North 2 mph /  3.2 km/h 6 mph /  9.7 km/h 81 % 0 in /  0.0 mm
20:32 40.5 °F /  4.7 °C 35.1 °F /  1.7 °C 30.3 in /  1025.6 hPa NNW 3 mph /  4.8 km/h 9 mph /  14.5 km/h 81 % 0 in /  0.0 mm
20:37 40.6 °F /  4.8 °C 34.9 °F /  1.6 °C 30.3 in /  1025.6 hPa North 4 mph /  6.4 km/h 9 mph /  14.5 km/h 80 % 0 in /  0.0 mm
20:47 39.9 °F /  4.4 °C 34.5 °F /  1.4 °C 30.3 in /  1025.6 hPa North 5 mph /  8.0 km/h 7 mph /  11.3 km/h 81 % 0 in /  0.0 mm
20:52 39.6 °F /  4.2 °C 34.5 °F /  1.4 °C 30.3 in /  1025.6 hPa NNW 6 mph /  9.7 km/h 7 mph /  11.3 km/h 82 % 0 in /  0.0 mm
20:57 39.4 °F /  4.1 °C 34.3 °F /  1.3 °C 30.3 in /  1025.6 hPa NNW 2 mph /  3.2 km/h 7 mph /  11.3 km/h 82 % 0 in /  0.0 mm
21:02 39.4 °F /  4.1 °C 34.7 °F /  1.5 °C 30.3 in /  1025.6 hPa NNW 4 mph /  6.4 km/h 6 mph /  9.7 km/h 83 % 0 in /  0.0 mm
21:12 39.7 °F /  4.3 °C 35.1 °F /  1.7 °C 30.3 in /  1025.6 hPa NW 2 mph /  3.2 km/h 7 mph /  11.3 km/h 83 % 0 in /  0.0 mm
21:17 39.9 °F /  4.4 °C 35.2 °F /  1.8 °C 30.3 in /  1025.3 hPa NNW 2 mph /  3.2 km/h 7 mph /  11.3 km/h 83 % 0 in /  0.0 mm
21:22 40.3 °F /  4.6 °C 35.2 °F /  1.8 °C 30.3 in /  1025.3 hPa North 7 mph /  11.3 km/h 8 mph /  12.9 km/h 82 % 0 in /  0.0 mm
21:27 40.5 °F /  4.7 °C 35.1 °F /  1.7 °C 30.3 in /  1025.6 hPa NNW 2 mph /  3.2 km/h 9 mph /  14.5 km/h 81 % 0 in /  0.0 mm
21:32 40.3 °F /  4.6 °C 35.2 °F /  1.8 °C 30.3 in /  1025.3 hPa NNW 3 mph /  4.8 km/h 9 mph /  14.5 km/h 82 % 0 in /  0.0 mm
21:37 40.3 °F /  4.6 °C 35.2 °F /  1.8 °C 30.3 in /  1025.3 hPa NNW 4 mph /  6.4 km/h 7 mph /  11.3 km/h 82 % 0 in /  0.0 mm
21:42 40.3 °F /  4.6 °C 35.2 °F /  1.8 °C 30.3 in /  1025.3 hPa NNW 6 mph /  9.7 km/h 9 mph /  14.5 km/h 82 % 0 in /  0.0 mm
21:47 40.5 °F /  4.7 °C 35.4 °F /  1.9 °C 30.3 in /  1025.3 hPa North 5 mph /  8.0 km/h 9 mph /  14.5 km/h 82 % 0 in /  0.0 mm
21:57 40.5 °F /  4.7 °C 35.8 °F /  2.1 °C 30.3 in /  1025.3 hPa NNE 4 mph /  6.4 km/h 8 mph /  12.9 km/h 83 % 0 in /  0.0 mm
22:02 40.8 °F /  4.9 °C 35.8 °F /  2.1 °C 30.3 in /  1025.3 hPa NNW 3 mph /  4.8 km/h 9 mph /  14.5 km/h 82 % 0 in /  0.0 mm
22:07 40.6 °F /  4.8 °C 35.2 °F /  1.8 °C 30.3 in /  1025.3 hPa Calm   10 mph /  16.1 km/h 81 % 0 in /  0.0 mm
22:12 40.5 °F /  4.7 °C 35.1 °F /  1.7 °C 30.3 in /  1025.3 hPa North 5 mph /  8.0 km/h 10 mph /  16.1 km/h 81 % 0 in /  0.0 mm
22:17 40.5 °F /  4.7 °C 35.4 °F /  1.9 °C 30.3 in /  1025.3 hPa NNW 4 mph /  6.4 km/h 9 mph /  14.5 km/h 82 % 0 in /  0.0 mm
22:22 40.3 °F /  4.6 °C 35.2 °F /  1.8 °C 30.3 in /  1025.3 hPa NNE 4 mph /  6.4 km/h 8 mph /  12.9 km/h 82 % 0 in /  0.0 mm
22:27 39.9 °F /  4.4 °C 34.9 °F /  1.6 °C 30.3 in /  1025.3 hPa NNW 2 mph /  3.2 km/h 8 mph /  12.9 km/h 82 % 0 in /  0.0 mm
22:37 39.7 °F /  4.3 °C 35.1 °F /  1.7 °C 30.3 in /  1024.9 hPa North 4 mph /  6.4 km/h 8 mph /  12.9 km/h 83 % 0 in /  0.0 mm
22:42 39.7 °F /  4.3 °C 34.7 °F /  1.5 °C 30.3 in /  1024.9 hPa NNE 6 mph /  9.7 km/h 9 mph /  14.5 km/h 82 % 0 in /  0.0 mm
22:52 39.6 °F /  4.2 °C 34.9 °F /  1.6 °C 30.3 in /  1024.9 hPa North 4 mph /  6.4 km/h 9 mph /  14.5 km/h 83 % 0 in /  0.0 mm
22:57 39.4 °F /  4.1 °C 34.7 °F /  1.5 °C 30.3 in /  1024.9 hPa NNW 2 mph /  3.2 km/h 10 mph /  16.1 km/h 83 % 0 in /  0.0 mm
23:07 39 °F /  3.9 °C 34.3 °F /  1.3 °C 30.3 in /  1024.9 hPa NNE 5 mph /  8.0 km/h 10 mph /  16.1 km/h 83 % 0 in /  0.0 mm
23:12 39 °F /  3.9 °C 34.5 °F /  1.4 °C 30.3 in /  1024.9 hPa NNE 8 mph /  12.9 km/h 8 mph /  12.9 km/h 84 % 0 in /  0.0 mm
23:17 39 °F /  3.9 °C 34.5 °F /  1.4 °C 30.3 in /  1024.9 hPa North 4 mph /  6.4 km/h 9 mph /  14.5 km/h 84 % 0 in /  0.0 mm
23:22 39 °F /  3.9 °C 34.5 °F /  1.4 °C 30.3 in /  1024.6 hPa NNW 5 mph /  8.0 km/h 10 mph /  16.1 km/h 84 % 0 in /  0.0 mm
23:27 38.8 °F /  3.8 °C 34.3 °F /  1.3 °C 30.3 in /  1024.6 hPa NNW 3 mph /  4.8 km/h 10 mph /  16.1 km/h 84 % 0 in /  0.0 mm
23:32 38.8 °F /  3.8 °C 34.3 °F /  1.3 °C 30.3 in /  1024.6 hPa WNW 6 mph /  9.7 km/h 9 mph /  14.5 km/h 84 % 0 in /  0.0 mm
23:37 38.7 °F /  3.7 °C 34.2 °F /  1.2 °C 30.3 in /  1024.6 hPa NNE 3 mph /  4.8 km/h 9 mph /  14.5 km/h 84 % 0 in /  0.0 mm
23:42 38.7 °F /  3.7 °C 34.2 °F /  1.2 °C 30.3 in /  1024.3 hPa NNW 1 mph /  1.6 km/h 9 mph /  14.5 km/h 84 % 0 in /  0.0 mm
23:47 38.5 °F /  3.6 °C 34.2 °F /  1.2 °C 30.3 in /  1024.6 hPa NNW 3 mph /  4.8 km/h 7 mph /  11.3 km/h 84 % 0 in /  0.0 mm
23:52 38.1 °F /  3.4 °C 34 °F /  1.1 °C 30.3 in /  1024.6 hPa NNW 3 mph /  4.8 km/h 7 mph /  11.3 km/h 85 % 0 in /  0.0 mm
23:57 38.1 °F /  3.4 °C 34 °F /  1.1 °C 30.3 in /  1024.3 hPa NNW 2 mph /  3.2 km/h 7 mph /  11.3 km/h 85 % 0 in /  0.0 mm
Meteo18
Compliments of Weather Underground - 4 mb

Script developed by  Jim McMurry - jmcmurry@mwt.net Adapted for the template by  Wim van der Kuil - Leuven-Template.eu

You find our weather info also at:

European Weather Network

Weather Underground

Equipment we use:

Weather-station
Davis Vue

Weather-program
Meteohub

Weather-server
Raspberry PI 2 B+

Provider
1 and 1

Davis Vue

Meteohub

Raspberry PI 2 B+

1 and 1